Urdampilleta, Argentina
Current Conditions -  °F | °C
As of 6:00 PM on Tuesday 27 Jan 2015 (Local Time) from SAEZ Reporting Station
Clear Clear  
Wind Chill: 88°   Ceiling: Unl
Heat Index: 94°   Visibility: 6mi
Dew Point: 72°   Wind: 3mph
Humidity: 58%   Direction: 160°SSE
Pressure: 29.68"   Gusts: NA
Location:  36.43°S, 61.43°W
Report Text: SAEZ 272100Z 16003KT CAVOK 31/22 Q1005
Loading
Personal Weather Stations






























Interactive Weather Map New forecast layout! Learn more

10-Day Weather Forecast

Advertisements
Track Severe Weather on mobile